sensor_id;sensor_type;location;lat;lon;timestamp;temperature;humidity
49224;DHT22;35050;51.316;5.994;2023-02-13T00:02:13;8.20;99.90
49224;DHT22;35050;51.316;5.994;2023-02-13T00:04:40;8.20;99.90
49224;DHT22;35050;51.316;5.994;2023-02-13T00:07:08;8.30;99.90
49224;DHT22;35050;51.316;5.994;2023-02-13T00:09:34;8.30;99.90
49224;DHT22;35050;51.316;5.994;2023-02-13T00:12:00;8.20;99.90
49224;DHT22;35050;51.316;5.994;2023-02-13T00:14:25;8.10;99.90
49224;DHT22;35050;51.316;5.994;2023-02-13T00:16:51;8.10;99.90
49224;DHT22;35050;51.316;5.994;2023-02-13T00:19:16;8.10;99.90
49224;DHT22;35050;51.316;5.994;2023-02-13T00:21:42;8.10;99.90
49224;DHT22;35050;51.316;5.994;2023-02-13T00:24:08;8.10;99.90
49224;DHT22;35050;51.316;5.994;2023-02-13T00:26:33;8.00;99.90
49224;DHT22;35050;51.316;5.994;2023-02-13T00:28:59;8.00;99.90
49224;DHT22;35050;51.316;5.994;2023-02-13T00:31:25;8.00;99.90
49224;DHT22;35050;51.316;5.994;2023-02-13T00:33:50;7.90;99.90
49224;DHT22;35050;51.316;5.994;2023-02-13T00:36:19;7.90;99.90
49224;DHT22;35050;51.316;5.994;2023-02-13T00:38:45;8.00;99.90
49224;DHT22;35050;51.316;5.994;2023-02-13T00:41:12;7.90;99.90
49224;DHT22;35050;51.316;5.994;2023-02-13T00:43:38;8.00;99.90
49224;DHT22;35050;51.316;5.994;2023-02-13T00:46:04;7.90;99.90
49224;DHT22;35050;51.316;5.994;2023-02-13T00:48:31;8.00;99.90
49224;DHT22;35050;51.316;5.994;2023-02-13T00:50:57;7.80;99.90
49224;DHT22;35050;51.316;5.994;2023-02-13T00:53:24;7.80;99.90
49224;DHT22;35050;51.316;5.994;2023-02-13T00:55:50;7.80;99.90
49224;DHT22;35050;51.316;5.994;2023-02-13T00:58:17;7.90;99.90
49224;DHT22;35050;51.316;5.994;2023-02-13T01:00:44;7.80;99.90
49224;DHT22;35050;51.316;5.994;2023-02-13T01:03:15;7.80;99.90
49224;DHT22;35050;51.316;5.994;2023-02-13T01:05:42;7.70;99.90
49224;DHT22;35050;51.316;5.994;2023-02-13T01:08:08;7.60;99.90
49224;DHT22;35050;51.316;5.994;2023-02-13T01:10:36;7.60;99.90
49224;DHT22;35050;51.316;5.994;2023-02-13T01:13:02;7.60;99.90
49224;DHT22;35050;51.316;5.994;2023-02-13T01:15:28;7.50;99.90
49224;DHT22;35050;51.316;5.994;2023-02-13T01:17:54;7.50;99.90
49224;DHT22;35050;51.316;5.994;2023-02-13T01:20:22;7.50;99.90
49224;DHT22;35050;51.316;5.994;2023-02-13T01:22:48;7.40;99.90
49224;DHT22;35050;51.316;5.994;2023-02-13T01:25:14;7.40;99.90
49224;DHT22;35050;51.316;5.994;2023-02-13T01:27:39;7.30;99.90
49224;DHT22;35050;51.316;5.994;2023-02-13T01:30:08;7.30;99.90
49224;DHT22;35050;51.316;5.994;2023-02-13T01:32:38;7.40;99.90
49224;DHT22;35050;51.316;5.994;2023-02-13T01:35:04;7.40;99.90
49224;DHT22;35050;51.316;5.994;2023-02-13T01:37:30;7.30;99.90
49224;DHT22;35050;51.316;5.994;2023-02-13T01:39:56;7.30;99.90
49224;DHT22;35050;51.316;5.994;2023-02-13T01:42:30;7.30;99.90
49224;DHT22;35050;51.316;5.994;2023-02-13T01:45:01;7.30;99.90
49224;DHT22;35050;51.316;5.994;2023-02-13T01:47:40;7.20;99.90
49224;DHT22;35050;51.316;5.994;2023-02-13T01:52:38;7.20;99.90
49224;DHT22;35050;51.316;5.994;2023-02-13T01:55:05;7.10;99.90
49224;DHT22;35050;51.316;5.994;2023-02-13T01:57:32;7.10;99.90
49224;DHT22;35050;51.316;5.994;2023-02-13T02:00:16;7.10;99.90
49224;DHT22;35050;51.316;5.994;2023-02-13T02:02:48;7.00;99.90
49224;DHT22;35050;51.316;5.994;2023-02-13T02:05:15;7.00;99.90
49224;DHT22;35050;51.316;5.994;2023-02-13T02:07:43;7.00;99.90
49224;DHT22;35050;51.316;5.994;2023-02-13T02:10:14;6.90;99.90
49224;DHT22;35050;51.316;5.994;2023-02-13T02:12:53;6.80;99.90
49224;DHT22;35050;51.316;5.994;2023-02-13T02:15:21;6.70;99.90
49224;DHT22;35050;51.316;5.994;2023-02-13T02:17:47;6.80;99.90
49224;DHT22;35050;51.316;5.994;2023-02-13T02:26:08;6.70;99.90
49224;DHT22;35050;51.316;5.994;2023-02-13T02:37:08;6.50;99.90
49224;DHT22;35050;51.316;5.994;2023-02-13T02:45:09;6.50;99.90
49224;DHT22;35050;51.316;5.994;2023-02-13T02:50:52;6.30;99.90
49224;DHT22;35050;51.316;5.994;2023-02-13T02:53:39;6.40;99.90
49224;DHT22;35050;51.316;5.994;2023-02-13T02:56:22;6.20;99.90
49224;DHT22;35050;51.316;5.994;2023-02-13T02:59:05;6.30;99.90
49224;DHT22;35050;51.316;5.994;2023-02-13T03:01:53;6.20;99.90
49224;DHT22;35050;51.316;5.994;2023-02-13T03:04:40;6.10;99.90
49224;DHT22;35050;51.316;5.994;2023-02-13T03:07:26;6.10;99.90
49224;DHT22;35050;51.316;5.994;2023-02-13T03:09:56;6.20;99.90
49224;DHT22;35050;51.316;5.994;2023-02-13T03:15:31;6.20;99.90
49224;DHT22;35050;51.316;5.994;2023-02-13T03:17:59;6.10;99.90
49224;DHT22;35050;51.316;5.994;2023-02-13T03:20:54;6.10;99.90
49224;DHT22;35050;51.316;5.994;2023-02-13T03:24:04;6.10;99.90
49224;DHT22;35050;51.316;5.994;2023-02-13T03:29:20;6.00;99.90
49224;DHT22;35050;51.316;5.994;2023-02-13T03:32:27;6.00;99.90
49224;DHT22;35050;51.316;5.994;2023-02-13T03:35:21;5.90;99.90
49224;DHT22;35050;51.316;5.994;2023-02-13T03:41:04;5.90;99.90
49224;DHT22;35050;51.316;5.994;2023-02-13T03:46:12;5.90;99.90
49224;DHT22;35050;51.316;5.994;2023-02-13T03:48:40;5.80;99.90
49224;DHT22;35050;51.316;5.994;2023-02-13T03:54:02;5.80;99.90
49224;DHT22;35050;51.316;5.994;2023-02-13T03:56:29;5.70;99.90
49224;DHT22;35050;51.316;5.994;2023-02-13T03:59:23;5.80;99.90
49224;DHT22;35050;51.316;5.994;2023-02-13T04:04:34;5.60;99.90
49224;DHT22;35050;51.316;5.994;2023-02-13T04:07:06;5.70;99.90
49224;DHT22;35050;51.316;5.994;2023-02-13T04:09:36;5.50;99.90
49224;DHT22;35050;51.316;5.994;2023-02-13T04:12:34;5.60;99.90
49224;DHT22;35050;51.316;5.994;2023-02-13T04:15:15;5.50;99.90
49224;DHT22;35050;51.316;5.994;2023-02-13T04:17:48;5.50;99.90
49224;DHT22;35050;51.316;5.994;2023-02-13T04:20:16;5.50;99.90
49224;DHT22;35050;51.316;5.994;2023-02-13T04:22:46;5.30;99.90
49224;DHT22;35050;51.316;5.994;2023-02-13T04:25:15;5.40;99.90
49224;DHT22;35050;51.316;5.994;2023-02-13T04:27:41;5.50;99.90
49224;DHT22;35050;51.316;5.994;2023-02-13T04:30:07;5.40;99.90
49224;DHT22;35050;51.316;5.994;2023-02-13T04:32:33;5.40;99.90
49224;DHT22;35050;51.316;5.994;2023-02-13T04:34:59;5.40;99.90
49224;DHT22;35050;51.316;5.994;2023-02-13T04:37:25;5.40;99.90
49224;DHT22;35050;51.316;5.994;2023-02-13T04:39:51;5.30;99.90
49224;DHT22;35050;51.316;5.994;2023-02-13T04:42:16;5.30;99.90
49224;DHT22;35050;51.316;5.994;2023-02-13T04:44:42;5.30;99.90
49224;DHT22;35050;51.316;5.994;2023-02-13T04:47:08;5.30;99.90
49224;DHT22;35050;51.316;5.994;2023-02-13T04:49:33;5.30;99.90
49224;DHT22;35050;51.316;5.994;2023-02-13T04:51:59;5.20;99.90
49224;DHT22;35050;51.316;5.994;2023-02-13T04:54:24;5.20;99.90
49224;DHT22;35050;51.316;5.994;2023-02-13T04:56:50;5.20;99.90
49224;DHT22;35050;51.316;5.994;2023-02-13T04:59:16;5.20;99.90
49224;DHT22;35050;51.316;5.994;2023-02-13T05:01:41;5.20;99.90
49224;DHT22;35050;51.316;5.994;2023-02-13T05:04:07;5.20;99.90
49224;DHT22;35050;51.316;5.994;2023-02-13T05:06:32;5.20;99.90
49224;DHT22;35050;51.316;5.994;2023-02-13T05:08:58;5.20;99.90
49224;DHT22;35050;51.316;5.994;2023-02-13T05:11:24;5.20;99.90
49224;DHT22;35050;51.316;5.994;2023-02-13T05:13:49;5.10;99.90
49224;DHT22;35050;51.316;5.994;2023-02-13T05:16:15;5.10;99.90
49224;DHT22;35050;51.316;5.994;2023-02-13T05:18:40;5.10;99.90
49224;DHT22;35050;51.316;5.994;2023-02-13T05:21:06;5.00;99.90
49224;DHT22;35050;51.316;5.994;2023-02-13T05:23:50;5.00;99.90
49224;DHT22;35050;51.316;5.994;2023-02-13T05:26:16;5.10;99.90
49224;DHT22;35050;51.316;5.994;2023-02-13T05:28:41;5.00;99.90
49224;DHT22;35050;51.316;5.994;2023-02-13T05:31:25;5.00;99.90
49224;DHT22;35050;51.316;5.994;2023-02-13T05:33:51;5.00;99.90
49224;DHT22;35050;51.316;5.994;2023-02-13T05:36:17;5.00;99.90
49224;DHT22;35050;51.316;5.994;2023-02-13T05:38:42;4.90;99.90
49224;DHT22;35050;51.316;5.994;2023-02-13T05:41:08;5.00;99.90
49224;DHT22;35050;51.316;5.994;2023-02-13T05:43:34;5.00;99.90
49224;DHT22;35050;51.316;5.994;2023-02-13T05:46:03;5.00;99.90
49224;DHT22;35050;51.316;5.994;2023-02-13T05:48:30;5.00;99.90
49224;DHT22;35050;51.316;5.994;2023-02-13T05:50:55;4.90;99.90
49224;DHT22;35050;51.316;5.994;2023-02-13T05:53:21;4.90;99.90
49224;DHT22;35050;51.316;5.994;2023-02-13T05:55:46;4.90;99.90
49224;DHT22;35050;51.316;5.994;2023-02-13T05:58:12;5.00;99.90
49224;DHT22;35050;51.316;5.994;2023-02-13T06:00:38;4.90;99.90
49224;DHT22;35050;51.316;5.994;2023-02-13T06:03:03;5.00;99.90
49224;DHT22;35050;51.316;5.994;2023-02-13T06:05:29;4.90;99.90
49224;DHT22;35050;51.316;5.994;2023-02-13T06:07:55;5.00;99.90
49224;DHT22;35050;51.316;5.994;2023-02-13T06:10:20;4.90;99.90
49224;DHT22;35050;51.316;5.994;2023-02-13T06:12:46;4.90;99.90
49224;DHT22;35050;51.316;5.994;2023-02-13T06:15:11;4.90;99.90
49224;DHT22;35050;51.316;5.994;2023-02-13T06:17:37;4.90;99.90
49224;DHT22;35050;51.316;5.994;2023-02-13T06:20:03;4.90;99.90
49224;DHT22;35050;51.316;5.994;2023-02-13T06:22:29;4.80;99.90
49224;DHT22;35050;51.316;5.994;2023-02-13T06:24:54;4.80;99.90
49224;DHT22;35050;51.316;5.994;2023-02-13T06:27:20;4.80;99.90
49224;DHT22;35050;51.316;5.994;2023-02-13T06:29:46;4.80;99.90
49224;DHT22;35050;51.316;5.994;2023-02-13T06:32:12;4.80;99.90
49224;DHT22;35050;51.316;5.994;2023-02-13T06:34:38;4.70;99.90
49224;DHT22;35050;51.316;5.994;2023-02-13T06:37:03;4.70;99.90
49224;DHT22;35050;51.316;5.994;2023-02-13T06:39:29;4.70;99.90
49224;DHT22;35050;51.316;5.994;2023-02-13T06:41:55;4.70;99.90
49224;DHT22;35050;51.316;5.994;2023-02-13T06:44:20;4.60;99.90
49224;DHT22;35050;51.316;5.994;2023-02-13T06:46:46;4.80;99.90
49224;DHT22;35050;51.316;5.994;2023-02-13T06:49:12;4.80;99.90
49224;DHT22;35050;51.316;5.994;2023-02-13T06:51:37;4.70;99.90
49224;DHT22;35050;51.316;5.994;2023-02-13T06:54:03;4.70;99.90
49224;DHT22;35050;51.316;5.994;2023-02-13T06:56:29;4.60;99.90
49224;DHT22;35050;51.316;5.994;2023-02-13T06:58:54;4.60;99.90
49224;DHT22;35050;51.316;5.994;2023-02-13T07:01:20;4.60;99.90
49224;DHT22;35050;51.316;5.994;2023-02-13T07:03:45;4.70;99.90
49224;DHT22;35050;51.316;5.994;2023-02-13T07:06:19;4.70;99.90
49224;DHT22;35050;51.316;5.994;2023-02-13T07:08:46;4.70;99.90
49224;DHT22;35050;51.316;5.994;2023-02-13T07:11:18;4.60;99.90
49224;DHT22;35050;51.316;5.994;2023-02-13T07:13:44;4.70;99.90
49224;DHT22;35050;51.316;5.994;2023-02-13T07:16:10;4.60;99.90
49224;DHT22;35050;51.316;5.994;2023-02-13T07:18:36;4.60;99.90
49224;DHT22;35050;51.316;5.994;2023-02-13T07:21:02;4.60;99.90
49224;DHT22;35050;51.316;5.994;2023-02-13T07:23:28;4.60;99.90
49224;DHT22;35050;51.316;5.994;2023-02-13T07:25:53;5.00;99.90
49224;DHT22;35050;51.316;5.994;2023-02-13T07:28:19;5.20;99.90
49224;DHT22;35050;51.316;5.994;2023-02-13T07:30:45;5.20;99.90
49224;DHT22;35050;51.316;5.994;2023-02-13T07:33:11;4.90;99.90
49224;DHT22;35050;51.316;5.994;2023-02-13T07:35:36;4.90;99.90
49224;DHT22;35050;51.316;5.994;2023-02-13T07:38:03;4.90;99.90
49224;DHT22;35050;51.316;5.994;2023-02-13T07:40:29;4.90;99.90
49224;DHT22;35050;51.316;5.994;2023-02-13T07:42:55;4.90;99.90
49224;DHT22;35050;51.316;5.994;2023-02-13T07:45:24;4.90;99.90
49224;DHT22;35050;51.316;5.994;2023-02-13T07:47:49;5.00;99.90
49224;DHT22;35050;51.316;5.994;2023-02-13T07:50:15;5.10;99.90
49224;DHT22;35050;51.316;5.994;2023-02-13T07:52:40;5.20;99.90
49224;DHT22;35050;51.316;5.994;2023-02-13T07:55:07;5.30;99.90
49224;DHT22;35050;51.316;5.994;2023-02-13T07:57:33;5.40;99.90
49224;DHT22;35050;51.316;5.994;2023-02-13T07:59:59;5.40;99.90
49224;DHT22;35050;51.316;5.994;2023-02-13T08:02:24;5.50;99.90
49224;DHT22;35050;51.316;5.994;2023-02-13T08:04:50;5.70;99.90
49224;DHT22;35050;51.316;5.994;2023-02-13T08:07:16;5.70;99.90
49224;DHT22;35050;51.316;5.994;2023-02-13T08:09:45;5.80;99.90
49224;DHT22;35050;51.316;5.994;2023-02-13T08:12:30;5.80;99.90
49224;DHT22;35050;51.316;5.994;2023-02-13T08:14:56;5.90;99.90
49224;DHT22;35050;51.316;5.994;2023-02-13T08:17:22;5.90;99.90
49224;DHT22;35050;51.316;5.994;2023-02-13T08:19:48;6.00;99.90
49224;DHT22;35050;51.316;5.994;2023-02-13T08:22:13;6.10;99.90
49224;DHT22;35050;51.316;5.994;2023-02-13T08:24:39;6.30;99.90
49224;DHT22;35050;51.316;5.994;2023-02-13T08:27:05;6.50;99.90
49224;DHT22;35050;51.316;5.994;2023-02-13T08:29:30;6.60;99.90
49224;DHT22;35050;51.316;5.994;2023-02-13T08:31:57;6.80;99.90
49224;DHT22;35050;51.316;5.994;2023-02-13T08:34:22;6.90;99.90
49224;DHT22;35050;51.316;5.994;2023-02-13T08:36:48;7.00;99.90
49224;DHT22;35050;51.316;5.994;2023-02-13T08:39:14;7.10;99.90
49224;DHT22;35050;51.316;5.994;2023-02-13T08:41:39;7.10;99.90
49224;DHT22;35050;51.316;5.994;2023-02-13T08:44:06;7.20;99.90
49224;DHT22;35050;51.316;5.994;2023-02-13T08:46:32;7.30;99.90
49224;DHT22;35050;51.316;5.994;2023-02-13T08:48:57;7.60;99.90
49224;DHT22;35050;51.316;5.994;2023-02-13T08:51:23;7.50;99.90
49224;DHT22;35050;51.316;5.994;2023-02-13T08:53:49;7.60;99.90
49224;DHT22;35050;51.316;5.994;2023-02-13T08:56:15;7.60;99.90
49224;DHT22;35050;51.316;5.994;2023-02-13T08:58:41;7.60;99.90
49224;DHT22;35050;51.316;5.994;2023-02-13T09:01:07;7.70;99.90
49224;DHT22;35050;51.316;5.994;2023-02-13T09:03:33;7.80;99.90
49224;DHT22;35050;51.316;5.994;2023-02-13T09:06:00;7.90;99.90
49224;DHT22;35050;51.316;5.994;2023-02-13T09:08:27;8.10;99.90
49224;DHT22;35050;51.316;5.994;2023-02-13T09:10:58;8.10;99.90
49224;DHT22;35050;51.316;5.994;2023-02-13T09:13:23;8.20;99.90
49224;DHT22;35050;51.316;5.994;2023-02-13T09:15:49;8.20;99.90
49224;DHT22;35050;51.316;5.994;2023-02-13T09:18:15;8.30;99.90
49224;DHT22;35050;51.316;5.994;2023-02-13T09:20:40;8.40;99.90
49224;DHT22;35050;51.316;5.994;2023-02-13T09:23:06;8.40;99.90
49224;DHT22;35050;51.316;5.994;2023-02-13T09:25:32;8.40;99.90
49224;DHT22;35050;51.316;5.994;2023-02-13T09:27:58;8.40;99.90
49224;DHT22;35050;51.316;5.994;2023-02-13T09:30:24;8.50;99.90
49224;DHT22;35050;51.316;5.994;2023-02-13T09:32:51;8.50;99.90
49224;DHT22;35050;51.316;5.994;2023-02-13T09:35:18;8.60;99.90
49224;DHT22;35050;51.316;5.994;2023-02-13T09:37:44;8.70;99.90
49224;DHT22;35050;51.316;5.994;2023-02-13T09:40:42;8.70;99.90
49224;DHT22;35050;51.316;5.994;2023-02-13T09:46:27;8.70;99.90
49224;DHT22;35050;51.316;5.994;2023-02-13T09:48:56;8.80;99.90
49224;DHT22;35050;51.316;5.994;2023-02-13T09:51:24;8.90;99.90
49224;DHT22;35050;51.316;5.994;2023-02-13T09:54:02;8.90;99.90
49224;DHT22;35050;51.316;5.994;2023-02-13T09:59:11;9.10;99.90
49224;DHT22;35050;51.316;5.994;2023-02-13T10:01:42;9.20;99.90
49224;DHT22;35050;51.316;5.994;2023-02-13T10:04:23;9.40;99.90
49224;DHT22;35050;51.316;5.994;2023-02-13T10:07:16;9.60;99.90
49224;DHT22;35050;51.316;5.994;2023-02-13T10:09:58;9.80;99.90
49224;DHT22;35050;51.316;5.994;2023-02-13T10:12:55;9.90;99.90
49224;DHT22;35050;51.316;5.994;2023-02-13T10:15:21;10.20;99.90
49224;DHT22;35050;51.316;5.994;2023-02-13T10:18:00;10.60;99.90
49224;DHT22;35050;51.316;5.994;2023-02-13T10:20:58;11.00;99.90
49224;DHT22;35050;51.316;5.994;2023-02-13T10:23:32;11.40;99.90
49224;DHT22;35050;51.316;5.994;2023-02-13T10:26:11;11.70;99.90
49224;DHT22;35050;51.316;5.994;2023-02-13T10:28:54;12.10;99.90
49224;DHT22;35050;51.316;5.994;2023-02-13T10:31:40;12.20;99.90
49224;DHT22;35050;51.316;5.994;2023-02-13T10:34:11;12.30;99.90
49224;DHT22;35050;51.316;5.994;2023-02-13T10:36:46;12.20;99.90
49224;DHT22;35050;51.316;5.994;2023-02-13T10:39:23;12.50;99.90
49224;DHT22;35050;51.316;5.994;2023-02-13T10:41:52;12.30;99.90
49224;DHT22;35050;51.316;5.994;2023-02-13T10:44:46;12.40;99.90
49224;DHT22;35050;51.316;5.994;2023-02-13T10:50:05;12.70;99.90
49224;DHT22;35050;51.316;5.994;2023-02-13T10:55:23;12.80;99.90
49224;DHT22;35050;51.316;5.994;2023-02-13T11:00:26;13.00;99.90
49224;DHT22;35050;51.316;5.994;2023-02-13T11:02:56;13.00;99.90
49224;DHT22;35050;51.316;5.994;2023-02-13T11:05:31;12.90;99.90
49224;DHT22;35050;51.316;5.994;2023-02-13T11:07:58;12.90;99.90
49224;DHT22;35050;51.316;5.994;2023-02-13T11:10:25;12.80;99.90
49224;DHT22;35050;51.316;5.994;2023-02-13T11:12:52;13.30;99.90
49224;DHT22;35050;51.316;5.994;2023-02-13T11:17:46;13.60;99.90
49224;DHT22;35050;51.316;5.994;2023-02-13T11:22:54;13.80;99.90
49224;DHT22;35050;51.316;5.994;2023-02-13T11:25:27;14.10;99.90
49224;DHT22;35050;51.316;5.994;2023-02-13T11:28:07;14.20;99.90
49224;DHT22;35050;51.316;5.994;2023-02-13T11:30:36;14.40;99.90
49224;DHT22;35050;51.316;5.994;2023-02-13T11:33:26;14.20;99.90
49224;DHT22;35050;51.316;5.994;2023-02-13T11:36:06;14.20;99.90
49224;DHT22;35050;51.316;5.994;2023-02-13T11:38:33;14.50;99.90
49224;DHT22;35050;51.316;5.994;2023-02-13T11:41:11;14.70;99.90
49224;DHT22;35050;51.316;5.994;2023-02-13T11:43:47;14.70;99.90
49224;DHT22;35050;51.316;5.994;2023-02-13T11:46:22;15.00;99.90
49224;DHT22;35050;51.316;5.994;2023-02-13T11:49:08;15.00;99.90
49224;DHT22;35050;51.316;5.994;2023-02-13T11:51:44;14.80;99.90
49224;DHT22;35050;51.316;5.994;2023-02-13T11:54:39;14.50;99.90
49224;DHT22;35050;51.316;5.994;2023-02-13T11:59:42;14.30;99.90
49224;DHT22;35050;51.316;5.994;2023-02-13T12:04:39;15.00;99.90
49224;DHT22;35050;51.316;5.994;2023-02-13T12:07:21;15.50;99.90
49224;DHT22;35050;51.316;5.994;2023-02-13T12:09:54;15.30;99.90
49224;DHT22;35050;51.316;5.994;2023-02-13T12:12:27;15.90;99.90
49224;DHT22;35050;51.316;5.994;2023-02-13T12:14:55;15.50;99.90
49224;DHT22;35050;51.316;5.994;2023-02-13T12:17:23;15.80;99.90
49224;DHT22;35050;51.316;5.994;2023-02-13T12:19:51;16.30;99.90
49224;DHT22;35050;51.316;5.994;2023-02-13T12:22:39;16.20;99.90
49224;DHT22;35050;51.316;5.994;2023-02-13T12:36:05;17.20;99.90
49224;DHT22;35050;51.316;5.994;2023-02-13T12:42:13;18.00;99.90
49224;DHT22;35050;51.316;5.994;2023-02-13T12:53:33;19.10;97.40
49224;DHT22;35050;51.316;5.994;2023-02-13T13:04:00;19.90;95.80
49224;DHT22;35050;51.316;5.994;2023-02-13T13:06:59;19.80;95.90
49224;DHT22;35050;51.316;5.994;2023-02-13T13:12:33;20.70;93.70
49224;DHT22;35050;51.316;5.994;2023-02-13T13:18:02;21.10;92.70
49224;DHT22;35050;51.316;5.994;2023-02-13T13:21:05;21.70;91.60
49224;DHT22;35050;51.316;5.994;2023-02-13T13:23:55;21.20;91.00
49224;DHT22;35050;51.316;5.994;2023-02-13T13:26:37;21.90;91.10
49224;DHT22;35050;51.316;5.994;2023-02-13T13:29:24;21.90;90.40
49224;DHT22;35050;51.316;5.994;2023-02-13T13:32:04;22.60;89.70
49224;DHT22;35050;51.316;5.994;2023-02-13T13:34:30;22.70;87.30
49224;DHT22;35050;51.316;5.994;2023-02-13T13:37:14;22.90;86.60
49224;DHT22;35050;51.316;5.994;2023-02-13T13:40:06;22.70;83.70
49224;DHT22;35050;51.316;5.994;2023-02-13T13:42:50;22.30;84.40
49224;DHT22;35050;51.316;5.994;2023-02-13T13:48:35;22.40;83.60
49224;DHT22;35050;51.316;5.994;2023-02-13T13:51:08;22.60;82.90
49224;DHT22;35050;51.316;5.994;2023-02-13T13:56:26;22.40;81.80
49224;DHT22;35050;51.316;5.994;2023-02-13T13:58:51;22.30;82.40
49224;DHT22;35050;51.316;5.994;2023-02-13T14:01:29;21.30;81.70
49224;DHT22;35050;51.316;5.994;2023-02-13T14:04:36;22.50;83.00
49224;DHT22;35050;51.316;5.994;2023-02-13T14:11:52;22.70;78.50
49224;DHT22;35050;51.316;5.994;2023-02-13T14:14:44;22.00;78.90
49224;DHT22;35050;51.316;5.994;2023-02-13T14:17:12;21.60;81.90
49224;DHT22;35050;51.316;5.994;2023-02-13T14:19:39;19.90;85.40
49224;DHT22;35050;51.316;5.994;2023-02-13T14:24:57;19.80;88.30
49224;DHT22;35050;51.316;5.994;2023-02-13T14:27:25;18.80;90.30
49224;DHT22;35050;51.316;5.994;2023-02-13T14:29:54;18.90;91.10
49224;DHT22;35050;51.316;5.994;2023-02-13T14:34:58;18.80;91.80
49224;DHT22;35050;51.316;5.994;2023-02-13T14:37:34;18.30;92.10
49224;DHT22;35050;51.316;5.994;2023-02-13T14:43:45;17.70;92.90
49224;DHT22;35050;51.316;5.994;2023-02-13T14:45:56;17.30;92.90
49224;DHT22;35050;51.316;5.994;2023-02-13T14:48:46;17.60;93.50
49224;DHT22;35050;51.316;5.994;2023-02-13T14:51:19;17.50;94.10
49224;DHT22;35050;51.316;5.994;2023-02-13T14:53:59;17.60;94.10
49224;DHT22;35050;51.316;5.994;2023-02-13T14:56:27;16.90;94.20
49224;DHT22;35050;51.316;5.994;2023-02-13T15:01:40;17.20;95.10
49224;DHT22;35050;51.316;5.994;2023-02-13T15:04:39;18.00;94.20
49224;DHT22;35050;51.316;5.994;2023-02-13T15:07:10;19.00;92.60
49224;DHT22;35050;51.316;5.994;2023-02-13T15:09:39;20.20;91.00
49224;DHT22;35050;51.316;5.994;2023-02-13T15:12:32;19.20;90.90
49224;DHT22;35050;51.316;5.994;2023-02-13T15:14:59;19.60;91.40
49224;DHT22;35050;51.316;5.994;2023-02-13T15:17:33;19.40;91.50
49224;DHT22;35050;51.316;5.994;2023-02-13T15:22:44;18.90;92.20
49224;DHT22;35050;51.316;5.994;2023-02-13T15:25:32;18.40;93.40
49224;DHT22;35050;51.316;5.994;2023-02-13T15:27:58;17.40;93.20
49224;DHT22;35050;51.316;5.994;2023-02-13T15:30:28;17.10;94.30
49224;DHT22;35050;51.316;5.994;2023-02-13T15:33:01;17.00;96.00
49224;DHT22;35050;51.316;5.994;2023-02-13T15:35:32;16.30;95.50
49224;DHT22;35050;51.316;5.994;2023-02-13T15:37:59;16.20;96.20
49224;DHT22;35050;51.316;5.994;2023-02-13T15:40:41;16.10;97.00
49224;DHT22;35050;51.316;5.994;2023-02-13T15:43:34;16.20;97.80
49224;DHT22;35050;51.316;5.994;2023-02-13T15:46:07;15.90;97.60
49224;DHT22;35050;51.316;5.994;2023-02-13T15:48:43;15.80;99.90
49224;DHT22;35050;51.316;5.994;2023-02-13T15:51:21;15.60;98.90
49224;DHT22;35050;51.316;5.994;2023-02-13T15:54:20;15.70;99.60
49224;DHT22;35050;51.316;5.994;2023-02-13T15:56:47;15.40;99.40
49224;DHT22;35050;51.316;5.994;2023-02-13T15:59:14;15.20;99.70
49224;DHT22;35050;51.316;5.994;2023-02-13T16:01:41;15.10;99.90
49224;DHT22;35050;51.316;5.994;2023-02-13T16:04:13;15.20;99.90
49224;DHT22;35050;51.316;5.994;2023-02-13T16:06:43;14.90;99.90
49224;DHT22;35050;51.316;5.994;2023-02-13T16:09:23;14.80;99.90
49224;DHT22;35050;51.316;5.994;2023-02-13T16:11:49;14.60;99.90
49224;DHT22;35050;51.316;5.994;2023-02-13T16:14:23;14.70;99.90
49224;DHT22;35050;51.316;5.994;2023-02-13T16:24:45;14.50;99.90
49224;DHT22;35050;51.316;5.994;2023-02-13T16:27:12;14.60;99.90
49224;DHT22;35050;51.316;5.994;2023-02-13T16:29:47;14.50;99.90
49224;DHT22;35050;51.316;5.994;2023-02-13T16:32:20;14.40;99.90
49224;DHT22;35050;51.316;5.994;2023-02-13T16:34:48;14.30;99.90
49224;DHT22;35050;51.316;5.994;2023-02-13T16:37:32;14.10;99.90
49224;DHT22;35050;51.316;5.994;2023-02-13T16:40:31;14.10;99.90
49224;DHT22;35050;51.316;5.994;2023-02-13T16:57:13;13.80;99.90
49224;DHT22;35050;51.316;5.994;2023-02-13T17:02:23;13.60;99.90
49224;DHT22;35050;51.316;5.994;2023-02-13T17:04:52;13.50;99.90
49224;DHT22;35050;51.316;5.994;2023-02-13T17:07:28;13.30;99.90
49224;DHT22;35050;51.316;5.994;2023-02-13T17:09:58;13.10;99.90
49224;DHT22;35050;51.316;5.994;2023-02-13T17:12:24;13.10;99.90
49224;DHT22;35050;51.316;5.994;2023-02-13T17:14:51;12.80;99.90
49224;DHT22;35050;51.316;5.994;2023-02-13T17:17:20;12.80;99.90
49224;DHT22;35050;51.316;5.994;2023-02-13T17:19:46;12.70;99.90
49224;DHT22;35050;51.316;5.994;2023-02-13T17:24:50;12.40;99.90
49224;DHT22;35050;51.316;5.994;2023-02-13T17:27:16;12.40;99.90
49224;DHT22;35050;51.316;5.994;2023-02-13T17:29:42;12.50;99.90
49224;DHT22;35050;51.316;5.994;2023-02-13T17:32:13;12.40;99.90
49224;DHT22;35050;51.316;5.994;2023-02-13T17:34:40;12.30;99.90
49224;DHT22;35050;51.316;5.994;2023-02-13T17:37:15;12.30;99.90
49224;DHT22;35050;51.316;5.994;2023-02-13T17:39:41;12.20;99.90
49224;DHT22;35050;51.316;5.994;2023-02-13T17:42:22;12.20;99.90
49224;DHT22;35050;51.316;5.994;2023-02-13T17:44:49;12.20;99.90
49224;DHT22;35050;51.316;5.994;2023-02-13T17:47:14;11.90;99.90
49224;DHT22;35050;51.316;5.994;2023-02-13T17:49:40;11.80;99.90
49224;DHT22;35050;51.316;5.994;2023-02-13T17:52:06;11.80;99.90
49224;DHT22;35050;51.316;5.994;2023-02-13T17:54:32;11.70;99.90
49224;DHT22;35050;51.316;5.994;2023-02-13T17:56:59;11.70;99.90
49224;DHT22;35050;51.316;5.994;2023-02-13T17:59:25;11.60;99.90
49224;DHT22;35050;51.316;5.994;2023-02-13T18:01:50;11.50;99.90
49224;DHT22;35050;51.316;5.994;2023-02-13T18:04:17;11.40;99.90
49224;DHT22;35050;51.316;5.994;2023-02-13T18:06:42;11.30;99.90
49224;DHT22;35050;51.316;5.994;2023-02-13T18:09:08;11.20;99.90
49224;DHT22;35050;51.316;5.994;2023-02-13T18:11:34;11.00;99.90
49224;DHT22;35050;51.316;5.994;2023-02-13T18:13:59;11.10;99.90
49224;DHT22;35050;51.316;5.994;2023-02-13T18:16:26;11.20;99.90
49224;DHT22;35050;51.316;5.994;2023-02-13T18:18:52;11.20;99.90
49224;DHT22;35050;51.316;5.994;2023-02-13T18:21:21;11.10;99.90
49224;DHT22;35050;51.316;5.994;2023-02-13T18:23:46;11.20;99.90
49224;DHT22;35050;51.316;5.994;2023-02-13T18:26:15;11.10;99.90
49224;DHT22;35050;51.316;5.994;2023-02-13T18:28:41;11.00;99.90
49224;DHT22;35050;51.316;5.994;2023-02-13T18:31:08;11.00;99.90
49224;DHT22;35050;51.316;5.994;2023-02-13T18:33:35;10.90;99.90
49224;DHT22;35050;51.316;5.994;2023-02-13T18:36:01;10.90;99.90
49224;DHT22;35050;51.316;5.994;2023-02-13T18:38:27;10.80;99.90
49224;DHT22;35050;51.316;5.994;2023-02-13T18:40:54;10.80;99.90